RYR17EN LIMC-LIBD
Flight info
| Callsign | RYR17EN |
|---|---|
| Flight time | 1h 21m |
| Altitude | 35000 |
| Route | ROBAS DCT LOGDI DCT EKDIR DCT KUGIX DCT IBRID DCT AMTEL DCT ERIKA DCT IPKAM DCT AMSOR DCT EKTOL/N0391F190 L995 DOGUS |
| Aircraft | B738/M-SDE2E3FGHIRWXY/LB1 |
Departure
| Time | 2026-05-05 19:46 |
|---|---|
| Airport | Milan Malpensa International Airport (LIMC) |
Arrival
| Time | 2026-05-05 21:07 |
|---|---|
| Airport | Bari Karol Wojtyła International Airport (LIBD) |
| Time | Latitude | Longitude | Altitude | Speed | Heading |
|---|---|---|---|---|---|
| 2026-05-05 18:52 | 45.62914 | 8.71839 | 719 ft | 0 kts | 82° |
| 2026-05-05 19:27 | 45.62916 | 8.71855 | 717 ft | 5 kts | 81° |
| 2026-05-05 19:27 | 45.62908 | 8.71938 | 717 ft | 11 kts | 120° |
| 2026-05-05 19:27 | 45.62829 | 8.71985 | 716 ft | 15 kts | 171° |
| 2026-05-05 19:27 | 45.62755 | 8.72005 | 715 ft | 6 kts | 168° |
| 2026-05-05 19:28 | 45.62731 | 8.72013 | 717 ft | 0 kts | 168° |
| 2026-05-05 19:28 | 45.62730 | 8.72013 | 717 ft | 0 kts | 168° |
| 2026-05-05 19:28 | 45.62715 | 8.72017 | 716 ft | 8 kts | 168° |
| 2026-05-05 19:28 | 45.62628 | 8.72043 | 716 ft | 17 kts | 168° |
| 2026-05-05 19:29 | 45.62512 | 8.72076 | 719 ft | 15 kts | 168° |
| 2026-05-05 19:29 | 45.62432 | 8.72100 | 716 ft | 2 kts | 168° |
| 2026-05-05 19:30 | 45.62426 | 8.72101 | 719 ft | 3 kts | 169° |
| 2026-05-05 19:30 | 45.62421 | 8.72103 | 718 ft | 0 kts | 169° |
| 2026-05-05 19:30 | 45.62416 | 8.72104 | 717 ft | 3 kts | 170° |
| 2026-05-05 19:30 | 45.62379 | 8.72113 | 715 ft | 8 kts | 170° |
| 2026-05-05 19:31 | 45.62303 | 8.72131 | 718 ft | 14 kts | 171° |
| 2026-05-05 19:31 | 45.62217 | 8.72169 | 718 ft | 12 kts | 137° |
| 2026-05-05 19:31 | 45.62213 | 8.72186 | 717 ft | 0 kts | 102° |
| 2026-05-05 19:31 | 45.62209 | 8.72218 | 715 ft | 7 kts | 98° |
| 2026-05-05 19:32 | 45.62157 | 8.72280 | 716 ft | 13 kts | 166° |
| 2026-05-05 19:32 | 45.62042 | 8.72316 | 718 ft | 20 kts | 169° |
| 2026-05-05 19:32 | 45.61906 | 8.72345 | 716 ft | 15 kts | 186° |
| 2026-05-05 19:32 | 45.61822 | 8.72271 | 717 ft | 15 kts | 188° |
| 2026-05-05 19:33 | 45.61713 | 8.72293 | 716 ft | 17 kts | 169° |
| 2026-05-05 19:33 | 45.61591 | 8.72329 | 719 ft | 19 kts | 168° |
| 2026-05-05 19:33 | 45.61454 | 8.72367 | 717 ft | 21 kts | 171° |
| 2026-05-05 19:33 | 45.61380 | 8.72240 | 718 ft | 18 kts | 247° |
| 2026-05-05 19:34 | 45.61275 | 8.72213 | 719 ft | 17 kts | 167° |
| 2026-05-05 19:34 | 45.61151 | 8.72248 | 715 ft | 20 kts | 171° |
| 2026-05-05 19:34 | 45.60999 | 8.72290 | 700 ft | 22 kts | 169° |
| 2026-05-05 19:35 | 45.60706 | 8.72374 | 696 ft | 23 kts | 160° |
| 2026-05-05 19:35 | 45.60637 | 8.72574 | 693 ft | 24 kts | 96° |
| 2026-05-05 19:35 | 45.60618 | 8.72813 | 695 ft | 26 kts | 95° |
| 2026-05-05 19:35 | 45.60601 | 8.73058 | 694 ft | 25 kts | 96° |
| 2026-05-05 19:36 | 45.60645 | 8.73272 | 692 ft | 22 kts | 27° |
| 2026-05-05 19:36 | 45.60773 | 8.73350 | 689 ft | 21 kts | 21° |
| 2026-05-05 19:36 | 45.60912 | 8.73402 | 701 ft | 21 kts | 354° |
| 2026-05-05 19:36 | 45.61053 | 8.73365 | 704 ft | 21 kts | 348° |
| 2026-05-05 19:37 | 45.61191 | 8.73325 | 718 ft | 20 kts | 348° |
| 2026-05-05 19:37 | 45.61337 | 8.73286 | 718 ft | 22 kts | 349° |
| 2026-05-05 19:37 | 45.61489 | 8.73244 | 717 ft | 22 kts | 350° |
| 2026-05-05 19:37 | 45.61607 | 8.73230 | 719 ft | 12 kts | 33° |
| 2026-05-05 19:38 | 45.61630 | 8.73334 | 716 ft | 12 kts | 82° |
| 2026-05-05 19:38 | 45.61633 | 8.73431 | 717 ft | 0 kts | 110° |
| 2026-05-05 19:38 | 45.61633 | 8.73432 | 717 ft | 0 kts | 111° |
| 2026-05-05 19:40 | 45.61633 | 8.73434 | 720 ft | 0 kts | 111° |
| 2026-05-05 19:41 | 45.61632 | 8.73435 | 719 ft | 0 kts | 114° |
| 2026-05-05 19:44 | 45.61624 | 8.73456 | 717 ft | 9 kts | 120° |
| 2026-05-05 19:44 | 45.61585 | 8.73601 | 716 ft | 19 kts | 93° |
| 2026-05-05 19:45 | 45.61623 | 8.73726 | 715 ft | 12 kts | 27° |
| 2026-05-05 19:45 | 45.61666 | 8.73725 | 718 ft | 2 kts | 350° |
| 2026-05-05 19:45 | 45.61709 | 8.73715 | 719 ft | 26 kts | 350° |
| 2026-05-05 19:45 | 45.62140 | 8.73595 | 718 ft | 98 kts | 349° |
| 2026-05-05 19:46 | 45.63016 | 8.73366 | 715 ft | 155 kts | 349° |
| 2026-05-05 19:46 | 45.64182 | 8.73034 | 1055 ft | 179 kts | 348° |
| 2026-05-05 19:46 | 45.65447 | 8.72720 | 1774 ft | 188 kts | 360° |
| 2026-05-05 19:46 | 45.66675 | 8.73304 | 2460 ft | 191 kts | 41° |
| 2026-05-05 19:47 | 45.67439 | 8.74902 | 2903 ft | 201 kts | 68° |
| 2026-05-05 19:47 | 45.67978 | 8.76785 | 3384 ft | 207 kts | 70° |
| 2026-05-05 19:47 | 45.68590 | 8.78666 | 3860 ft | 213 kts | 53° |
| 2026-05-05 19:47 | 45.69721 | 8.80061 | 4342 ft | 219 kts | 39° |
| 2026-05-05 19:48 | 45.70921 | 8.81465 | 4776 ft | 229 kts | 46° |
| 2026-05-05 19:48 | 45.71647 | 8.83572 | 4947 ft | 251 kts | 86° |
| 2026-05-05 19:48 | 45.71271 | 8.86045 | 5316 ft | 264 kts | 123° |
| 2026-05-05 19:48 | 45.70114 | 8.88102 | 6026 ft | 268 kts | 132° |
| 2026-05-05 19:49 | 45.68872 | 8.90113 | 6756 ft | 272 kts | 133° |
| 2026-05-05 19:49 | 45.68037 | 8.91457 | 7244 ft | 274 kts | 133° |
| 2026-05-05 19:49 | 45.66333 | 8.94227 | 8272 ft | 278 kts | 133° |
| 2026-05-05 19:49 | 45.65064 | 8.96314 | 9058 ft | 282 kts | 133° |
| 2026-05-05 19:50 | 45.63774 | 8.98452 | 9858 ft | 285 kts | 133° |
| 2026-05-05 19:50 | 45.62464 | 9.00638 | 10415 ft | 298 kts | 133° |
| 2026-05-05 19:50 | 45.61063 | 9.02978 | 10581 ft | 323 kts | 133° |
| 2026-05-05 19:50 | 45.59553 | 9.05508 | 10747 ft | 346 kts | 133° |
| 2026-05-05 19:51 | 45.57955 | 9.08194 | 11156 ft | 360 kts | 133° |
| 2026-05-05 19:51 | 45.56327 | 9.10939 | 11799 ft | 365 kts | 133° |
| 2026-05-05 19:51 | 45.54659 | 9.13700 | 12544 ft | 369 kts | 134° |
| 2026-05-05 19:51 | 45.52969 | 9.16472 | 13287 ft | 373 kts | 134° |
| 2026-05-05 19:52 | 45.51279 | 9.19261 | 13964 ft | 379 kts | 134° |
| 2026-05-05 19:52 | 45.49557 | 9.22124 | 14665 ft | 382 kts | 134° |
| 2026-05-05 19:52 | 45.47828 | 9.25017 | 15415 ft | 385 kts | 134° |
| 2026-05-05 19:52 | 45.46092 | 9.27935 | 16140 ft | 388 kts | 134° |
| 2026-05-05 19:53 | 45.44335 | 9.30891 | 16837 ft | 392 kts | 135° |
| 2026-05-05 19:53 | 45.43140 | 9.32901 | 17318 ft | 395 kts | 135° |
| 2026-05-05 19:53 | 45.41358 | 9.35899 | 17975 ft | 400 kts | 135° |
| 2026-05-05 19:53 | 45.39546 | 9.38942 | 18636 ft | 405 kts | 135° |
| 2026-05-05 19:54 | 45.37720 | 9.42009 | 19246 ft | 407 kts | 135° |
| 2026-05-05 19:54 | 45.35884 | 9.45091 | 19909 ft | 408 kts | 135° |
| 2026-05-05 19:54 | 45.34042 | 9.48179 | 20512 ft | 411 kts | 136° |
| 2026-05-05 19:54 | 45.32182 | 9.51292 | 21080 ft | 415 kts | 136° |
| 2026-05-05 19:55 | 45.30330 | 9.54387 | 21633 ft | 418 kts | 136° |
| 2026-05-05 19:55 | 45.28440 | 9.57543 | 22187 ft | 420 kts | 136° |
| 2026-05-05 19:55 | 45.26538 | 9.60716 | 22741 ft | 423 kts | 136° |
| 2026-05-05 19:55 | 45.24625 | 9.63906 | 23282 ft | 426 kts | 136° |
| 2026-05-05 19:56 | 45.22694 | 9.67121 | 23745 ft | 429 kts | 137° |
| 2026-05-05 19:56 | 45.20745 | 9.70357 | 24156 ft | 432 kts | 137° |
| 2026-05-05 19:56 | 45.18649 | 9.73392 | 24533 ft | 429 kts | 146° |
| 2026-05-05 19:56 | 45.16261 | 9.75893 | 24932 ft | 427 kts | 152° |
| 2026-05-05 19:57 | 45.13796 | 9.78272 | 25295 ft | 431 kts | 152° |
| 2026-05-05 19:57 | 45.11298 | 9.80666 | 25666 ft | 434 kts | 153° |
| 2026-05-05 19:57 | 45.08792 | 9.83077 | 26053 ft | 437 kts | 153° |
| 2026-05-05 19:57 | 45.06272 | 9.85520 | 26444 ft | 441 kts | 152° |
| 2026-05-05 19:58 | 45.03738 | 9.87991 | 26810 ft | 444 kts | 152° |
| 2026-05-05 19:58 | 45.01188 | 9.90485 | 27165 ft | 447 kts | 153° |
| 2026-05-05 19:58 | 44.98620 | 9.93000 | 27515 ft | 450 kts | 153° |
| 2026-05-05 19:58 | 44.96037 | 9.95528 | 27856 ft | 453 kts | 153° |
| 2026-05-05 19:59 | 44.93465 | 9.98042 | 28117 ft | 457 kts | 153° |
| 2026-05-05 19:59 | 44.90915 | 10.00530 | 28369 ft | 461 kts | 153° |
| 2026-05-05 19:59 | 44.88265 | 10.03116 | 28712 ft | 463 kts | 153° |
| 2026-05-05 19:59 | 44.85611 | 10.05703 | 29060 ft | 465 kts | 153° |
| 2026-05-05 20:00 | 44.82940 | 10.08303 | 29388 ft | 468 kts | 153° |
| 2026-05-05 20:00 | 44.80257 | 10.10912 | 29791 ft | 468 kts | 154° |
| 2026-05-05 20:00 | 44.77578 | 10.13515 | 30229 ft | 467 kts | 154° |
| 2026-05-05 20:00 | 44.74908 | 10.16107 | 30671 ft | 464 kts | 154° |
| 2026-05-05 20:01 | 44.72255 | 10.18678 | 31114 ft | 461 kts | 154° |
| 2026-05-05 20:01 | 44.69621 | 10.21254 | 31565 ft | 460 kts | 153° |
| 2026-05-05 20:01 | 44.67025 | 10.23877 | 31953 ft | 460 kts | 153° |
| 2026-05-05 20:01 | 44.64441 | 10.26527 | 32266 ft | 461 kts | 152° |
| 2026-05-05 20:02 | 44.61840 | 10.29201 | 32522 ft | 463 kts | 153° |
| 2026-05-05 20:02 | 44.59244 | 10.31867 | 32953 ft | 462 kts | 153° |
| 2026-05-05 20:02 | 44.56664 | 10.34510 | 33465 ft | 457 kts | 153° |
| 2026-05-05 20:02 | 44.54094 | 10.37132 | 33865 ft | 456 kts | 153° |
| 2026-05-05 20:03 | 44.51525 | 10.39741 | 34147 ft | 456 kts | 153° |
| 2026-05-05 20:03 | 44.48948 | 10.42350 | 34383 ft | 458 kts | 153° |
| 2026-05-05 20:03 | 44.46365 | 10.44963 | 34679 ft | 458 kts | 153° |
| 2026-05-05 20:03 | 44.43780 | 10.47577 | 34983 ft | 458 kts | 153° |
| 2026-05-05 20:04 | 44.41190 | 10.50191 | 35032 ft | 462 kts | 153° |
| 2026-05-05 20:04 | 44.35968 | 10.55458 | 35048 ft | 461 kts | 153° |
| 2026-05-05 20:05 | 44.30824 | 10.60643 | 35065 ft | 458 kts | 153° |
| 2026-05-05 20:05 | 44.25618 | 10.65866 | 35068 ft | 464 kts | 153° |
| 2026-05-05 20:06 | 44.20360 | 10.71135 | 35069 ft | 467 kts | 153° |
| 2026-05-05 20:06 | 44.15097 | 10.76442 | 35050 ft | 464 kts | 152° |
| 2026-05-05 20:07 | 44.09910 | 10.81688 | 35016 ft | 460 kts | 152° |
| 2026-05-05 20:07 | 44.04723 | 10.86912 | 35031 ft | 461 kts | 152° |
| 2026-05-05 20:08 | 43.99516 | 10.92138 | 35014 ft | 463 kts | 152° |
| 2026-05-05 20:08 | 43.94292 | 10.97373 | 35011 ft | 464 kts | 152° |
| 2026-05-05 20:09 | 43.89109 | 11.02557 | 34994 ft | 465 kts | 152° |
| 2026-05-05 20:09 | 43.83862 | 11.07795 | 34990 ft | 465 kts | 152° |
| 2026-05-05 20:10 | 43.78605 | 11.13029 | 34996 ft | 465 kts | 152° |
| 2026-05-05 20:10 | 43.73340 | 11.18260 | 34994 ft | 466 kts | 152° |
| 2026-05-05 20:11 | 43.68072 | 11.23482 | 34997 ft | 466 kts | 152° |
| 2026-05-05 20:11 | 43.62834 | 11.28665 | 34985 ft | 466 kts | 152° |
| 2026-05-05 20:12 | 43.57524 | 11.33908 | 34995 ft | 466 kts | 152° |
| 2026-05-05 20:12 | 43.52114 | 11.38730 | 35003 ft | 459 kts | 159° |
| 2026-05-05 20:13 | 43.46505 | 11.42790 | 35007 ft | 458 kts | 160° |
| 2026-05-05 20:13 | 43.40875 | 11.46927 | 35004 ft | 459 kts | 160° |
| 2026-05-05 20:14 | 43.35253 | 11.51103 | 35001 ft | 460 kts | 160° |
| 2026-05-05 20:14 | 43.29619 | 11.55277 | 35008 ft | 459 kts | 160° |
| 2026-05-05 20:15 | 43.24000 | 11.59474 | 35004 ft | 463 kts | 156° |
| 2026-05-05 20:15 | 43.19013 | 11.65290 | 35019 ft | 481 kts | 139° |
| 2026-05-05 20:16 | 43.14645 | 11.72264 | 35018 ft | 482 kts | 137° |
| 2026-05-05 20:16 | 43.10300 | 11.79263 | 35024 ft | 481 kts | 137° |
| 2026-05-05 20:17 | 43.05925 | 11.86197 | 35024 ft | 481 kts | 138° |
| 2026-05-05 20:17 | 43.01530 | 11.93087 | 35029 ft | 481 kts | 138° |
| 2026-05-05 20:18 | 42.97131 | 11.99955 | 35031 ft | 481 kts | 139° |
| 2026-05-05 20:18 | 42.92766 | 12.06752 | 35016 ft | 481 kts | 138° |
| 2026-05-05 20:19 | 42.88357 | 12.13606 | 35021 ft | 480 kts | 138° |
| 2026-05-05 20:19 | 42.83947 | 12.20446 | 35044 ft | 480 kts | 138° |
| 2026-05-05 20:20 | 42.79529 | 12.27282 | 35024 ft | 480 kts | 138° |
| 2026-05-05 20:20 | 42.75137 | 12.34063 | 35025 ft | 480 kts | 138° |
| 2026-05-05 20:21 | 42.70718 | 12.40871 | 35009 ft | 480 kts | 138° |
| 2026-05-05 20:21 | 42.66291 | 12.47672 | 35037 ft | 480 kts | 138° |
| 2026-05-05 20:22 | 42.61854 | 12.54474 | 35057 ft | 481 kts | 138° |
| 2026-05-05 20:22 | 42.57402 | 12.61281 | 35055 ft | 482 kts | 138° |
| 2026-05-05 20:23 | 42.52936 | 12.68097 | 35054 ft | 483 kts | 138° |
| 2026-05-05 20:23 | 42.48464 | 12.74906 | 35040 ft | 483 kts | 137° |
| 2026-05-05 20:24 | 42.43990 | 12.81705 | 35059 ft | 483 kts | 137° |
| 2026-05-05 20:24 | 42.39509 | 12.88495 | 35066 ft | 484 kts | 137° |
| 2026-05-05 20:25 | 42.35016 | 12.95285 | 35073 ft | 485 kts | 137° |
| 2026-05-05 20:25 | 42.30567 | 13.01995 | 35073 ft | 485 kts | 137° |
| 2026-05-05 20:26 | 42.26076 | 13.08755 | 35062 ft | 486 kts | 137° |
| 2026-05-05 20:26 | 42.21554 | 13.15544 | 35059 ft | 487 kts | 137° |
| 2026-05-05 20:27 | 42.17011 | 13.22350 | 35073 ft | 487 kts | 137° |
| 2026-05-05 20:27 | 42.12468 | 13.29140 | 35075 ft | 488 kts | 137° |
| 2026-05-05 20:28 | 42.07912 | 13.35931 | 35063 ft | 489 kts | 137° |
| 2026-05-05 20:28 | 42.03348 | 13.42722 | 35070 ft | 489 kts | 137° |
| 2026-05-05 20:29 | 41.98791 | 13.49486 | 35072 ft | 488 kts | 137° |
| 2026-05-05 20:29 | 41.94250 | 13.56210 | 35076 ft | 488 kts | 137° |
| 2026-05-05 20:30 | 41.89672 | 13.62973 | 35082 ft | 489 kts | 137° |
| 2026-05-05 20:30 | 41.85089 | 13.69728 | 35064 ft | 490 kts | 137° |
| 2026-05-05 20:31 | 41.80501 | 13.76477 | 35065 ft | 489 kts | 137° |
| 2026-05-05 20:31 | 41.75913 | 13.83208 | 35081 ft | 488 kts | 137° |
| 2026-05-05 20:32 | 41.71334 | 13.89914 | 35078 ft | 487 kts | 136° |
| 2026-05-05 20:32 | 41.66757 | 13.96601 | 35080 ft | 487 kts | 136° |
| 2026-05-05 20:33 | 41.62243 | 14.03182 | 35072 ft | 485 kts | 137° |
| 2026-05-05 20:33 | 41.57680 | 14.09809 | 35072 ft | 484 kts | 137° |
| 2026-05-05 20:34 | 41.53110 | 14.16433 | 35088 ft | 484 kts | 137° |
| 2026-05-05 20:34 | 41.49318 | 14.21919 | 35067 ft | 484 kts | 136° |
| 2026-05-05 20:35 | 41.44743 | 14.28526 | 35078 ft | 485 kts | 136° |
| 2026-05-05 20:35 | 41.39414 | 14.36205 | 35067 ft | 486 kts | 136° |
| 2026-05-05 20:36 | 41.35557 | 14.41749 | 35080 ft | 487 kts | 136° |
| 2026-05-05 20:36 | 41.30949 | 14.48362 | 35076 ft | 488 kts | 136° |
| 2026-05-05 20:37 | 41.26351 | 14.54947 | 35059 ft | 489 kts | 136° |
| 2026-05-05 20:37 | 41.21745 | 14.61682 | 35066 ft | 491 kts | 130° |
| 2026-05-05 20:38 | 41.18463 | 14.69676 | 35071 ft | 497 kts | 111° |
| 2026-05-05 20:38 | 41.16927 | 14.78575 | 35017 ft | 500 kts | 101° |
| 2026-05-05 20:38 | 41.16287 | 14.83127 | 34750 ft | 500 kts | 102° |
| 2026-05-05 20:39 | 41.15600 | 14.87646 | 34513 ft | 499 kts | 103° |
| 2026-05-05 20:39 | 41.14878 | 14.92146 | 34275 ft | 500 kts | 103° |
| 2026-05-05 20:39 | 41.14137 | 14.96673 | 34032 ft | 502 kts | 103° |
| 2026-05-05 20:39 | 41.13409 | 15.01105 | 33774 ft | 504 kts | 103° |
| 2026-05-05 20:40 | 41.12666 | 15.05647 | 33500 ft | 505 kts | 103° |
| 2026-05-05 20:40 | 41.11924 | 15.10203 | 33233 ft | 506 kts | 103° |
| 2026-05-05 20:40 | 41.11181 | 15.14764 | 32972 ft | 506 kts | 103° |
| 2026-05-05 20:40 | 41.10436 | 15.19327 | 32707 ft | 506 kts | 103° |
| 2026-05-05 20:41 | 41.09689 | 15.23888 | 32454 ft | 506 kts | 103° |
| 2026-05-05 20:41 | 41.08943 | 15.28442 | 32190 ft | 505 kts | 103° |
| 2026-05-05 20:41 | 41.08196 | 15.32990 | 31947 ft | 505 kts | 102° |
| 2026-05-05 20:41 | 41.07448 | 15.37535 | 31695 ft | 504 kts | 103° |
| 2026-05-05 20:42 | 41.06701 | 15.42064 | 31449 ft | 504 kts | 103° |
| 2026-05-05 20:42 | 41.05952 | 15.46592 | 31199 ft | 503 kts | 103° |
| 2026-05-05 20:42 | 41.05201 | 15.51122 | 30955 ft | 503 kts | 103° |
| 2026-05-05 20:42 | 41.04450 | 15.55639 | 30712 ft | 503 kts | 103° |
| 2026-05-05 20:43 | 41.03695 | 15.60168 | 30474 ft | 503 kts | 103° |
| 2026-05-05 20:43 | 41.02940 | 15.64689 | 29992 ft | 501 kts | 102° |
| 2026-05-05 20:43 | 41.02185 | 15.69200 | 29049 ft | 502 kts | 103° |
| 2026-05-05 20:43 | 41.01428 | 15.73710 | 28254 ft | 500 kts | 103° |
| 2026-05-05 20:44 | 41.00681 | 15.78167 | 27690 ft | 492 kts | 103° |
| 2026-05-05 20:44 | 40.99945 | 15.82553 | 27065 ft | 487 kts | 103° |
| 2026-05-05 20:44 | 40.99214 | 15.86897 | 26449 ft | 482 kts | 103° |
| 2026-05-05 20:44 | 40.98488 | 15.91205 | 25843 ft | 477 kts | 103° |
| 2026-05-05 20:45 | 40.97050 | 15.99705 | 24652 ft | 467 kts | 103° |
| 2026-05-05 20:45 | 40.96357 | 16.03791 | 24046 ft | 464 kts | 103° |
| 2026-05-05 20:45 | 40.95652 | 16.07937 | 23399 ft | 460 kts | 103° |
| 2026-05-05 20:46 | 40.95014 | 16.12012 | 22728 ft | 456 kts | 98° |
| 2026-05-05 20:46 | 40.94758 | 16.16214 | 22140 ft | 450 kts | 92° |
| 2026-05-05 20:46 | 40.94674 | 16.20277 | 21535 ft | 446 kts | 91° |
| 2026-05-05 20:46 | 40.94616 | 16.24354 | 20925 ft | 441 kts | 91° |
| 2026-05-05 20:47 | 40.94537 | 16.28397 | 20338 ft | 437 kts | 92° |
| 2026-05-05 20:47 | 40.94429 | 16.32403 | 19750 ft | 433 kts | 92° |
| 2026-05-05 20:47 | 40.94300 | 16.36371 | 19167 ft | 430 kts | 92° |
| 2026-05-05 20:47 | 40.94160 | 16.40314 | 18559 ft | 428 kts | 92° |
| 2026-05-05 20:48 | 40.94018 | 16.44225 | 17914 ft | 425 kts | 93° |
| 2026-05-05 20:48 | 40.93877 | 16.48112 | 17300 ft | 420 kts | 93° |
| 2026-05-05 20:48 | 40.93779 | 16.51950 | 16703 ft | 416 kts | 88° |
| 2026-05-05 20:48 | 40.94363 | 16.55654 | 16114 ft | 410 kts | 68° |
| 2026-05-05 20:49 | 40.95428 | 16.59128 | 15590 ft | 405 kts | 67° |
| 2026-05-05 20:49 | 40.96454 | 16.62580 | 15021 ft | 401 kts | 68° |
| 2026-05-05 20:49 | 40.97450 | 16.66014 | 14474 ft | 398 kts | 69° |
| 2026-05-05 20:49 | 40.98425 | 16.69423 | 13928 ft | 395 kts | 69° |
| 2026-05-05 20:50 | 40.99388 | 16.72812 | 13307 ft | 392 kts | 69° |
| 2026-05-05 20:50 | 41.00337 | 16.76161 | 12943 ft | 382 kts | 69° |
| 2026-05-05 20:50 | 41.01252 | 16.79393 | 12781 ft | 368 kts | 69° |
| 2026-05-05 20:50 | 41.02136 | 16.82520 | 12621 ft | 356 kts | 69° |
| 2026-05-05 20:51 | 41.02991 | 16.85542 | 12471 ft | 344 kts | 69° |
| 2026-05-05 20:51 | 41.03818 | 16.88470 | 12316 ft | 334 kts | 69° |
| 2026-05-05 20:51 | 41.04619 | 16.91307 | 12192 ft | 324 kts | 69° |
| 2026-05-05 20:51 | 41.05396 | 16.94065 | 12055 ft | 315 kts | 69° |
| 2026-05-05 20:52 | 41.06152 | 16.96748 | 11916 ft | 307 kts | 69° |
| 2026-05-05 20:52 | 41.06886 | 16.99360 | 11779 ft | 299 kts | 69° |
| 2026-05-05 20:52 | 41.07586 | 17.01854 | 11646 ft | 292 kts | 69° |
| 2026-05-05 20:52 | 41.08285 | 17.04344 | 11511 ft | 285 kts | 69° |
| 2026-05-05 20:53 | 41.08975 | 17.06796 | 11241 ft | 284 kts | 69° |
| 2026-05-05 20:53 | 41.09663 | 17.09239 | 10996 ft | 282 kts | 69° |
| 2026-05-05 20:53 | 41.10346 | 17.11671 | 10728 ft | 281 kts | 69° |
| 2026-05-05 20:53 | 41.11027 | 17.14095 | 10466 ft | 280 kts | 69° |
| 2026-05-05 20:54 | 41.11701 | 17.16512 | 10180 ft | 280 kts | 69° |
| 2026-05-05 20:54 | 41.12362 | 17.18892 | 9899 ft | 276 kts | 69° |
| 2026-05-05 20:54 | 41.13015 | 17.21247 | 9618 ft | 268 kts | 69° |
| 2026-05-05 20:54 | 41.13642 | 17.23511 | 9374 ft | 254 kts | 69° |
| 2026-05-05 20:55 | 41.14235 | 17.25652 | 9118 ft | 241 kts | 69° |
| 2026-05-05 20:55 | 41.14799 | 17.27682 | 8874 ft | 229 kts | 69° |
| 2026-05-05 20:55 | 41.15332 | 17.29603 | 8700 ft | 215 kts | 69° |
| 2026-05-05 20:55 | 41.15843 | 17.31445 | 8492 ft | 210 kts | 69° |
| 2026-05-05 20:56 | 41.16423 | 17.33205 | 8304 ft | 207 kts | 51° |
| 2026-05-05 20:56 | 41.17558 | 17.34236 | 8144 ft | 197 kts | 9° |
| 2026-05-05 20:56 | 41.18916 | 17.34220 | 8009 ft | 199 kts | 342° |
| 2026-05-05 20:56 | 41.20229 | 17.33604 | 7826 ft | 202 kts | 337° |
| 2026-05-05 20:57 | 41.21554 | 17.32957 | 7603 ft | 203 kts | 337° |
| 2026-05-05 20:57 | 41.22880 | 17.32310 | 7391 ft | 203 kts | 337° |
| 2026-05-05 20:57 | 41.24204 | 17.31665 | 7196 ft | 202 kts | 337° |
| 2026-05-05 20:57 | 41.25501 | 17.31034 | 7095 ft | 196 kts | 337° |
| 2026-05-05 20:58 | 41.26680 | 17.30217 | 6979 ft | 188 kts | 310° |
| 2026-05-05 20:58 | 41.27223 | 17.28668 | 6854 ft | 190 kts | 275° |
| 2026-05-05 20:58 | 41.27027 | 17.26934 | 6687 ft | 193 kts | 250° |
| 2026-05-05 20:58 | 41.26562 | 17.25266 | 6499 ft | 195 kts | 250° |
| 2026-05-05 20:59 | 41.26093 | 17.23568 | 6290 ft | 190 kts | 250° |
| 2026-05-05 20:59 | 41.25653 | 17.21983 | 6084 ft | 182 kts | 250° |
| 2026-05-05 20:59 | 41.25223 | 17.20438 | 5878 ft | 174 kts | 250° |
| 2026-05-05 20:59 | 41.24808 | 17.18943 | 5696 ft | 172 kts | 250° |
| 2026-05-05 21:00 | 41.24389 | 17.17439 | 5526 ft | 174 kts | 249° |
| 2026-05-05 21:00 | 41.23970 | 17.15932 | 5344 ft | 175 kts | 249° |
| 2026-05-05 21:00 | 41.23544 | 17.14404 | 5135 ft | 177 kts | 249° |
| 2026-05-05 21:00 | 41.23115 | 17.12869 | 4941 ft | 177 kts | 249° |
| 2026-05-05 21:01 | 41.22688 | 17.11337 | 4749 ft | 177 kts | 249° |
| 2026-05-05 21:01 | 41.22261 | 17.09811 | 4549 ft | 175 kts | 249° |
| 2026-05-05 21:01 | 41.21837 | 17.08297 | 4346 ft | 174 kts | 249° |
| 2026-05-05 21:01 | 41.21419 | 17.06798 | 4164 ft | 172 kts | 248° |
| 2026-05-05 21:02 | 41.21089 | 17.05271 | 3975 ft | 173 kts | 259° |
| 2026-05-05 21:02 | 41.20904 | 17.03696 | 3813 ft | 172 kts | 258° |
| 2026-05-05 21:02 | 41.20692 | 17.02136 | 3624 ft | 172 kts | 257° |
| 2026-05-05 21:02 | 41.20472 | 17.00580 | 3449 ft | 172 kts | 257° |
| 2026-05-05 21:03 | 41.20248 | 16.99013 | 3268 ft | 173 kts | 257° |
| 2026-05-05 21:03 | 41.19919 | 16.97477 | 3082 ft | 173 kts | 246° |
| 2026-05-05 21:03 | 41.19484 | 16.95999 | 2892 ft | 171 kts | 247° |
| 2026-05-05 21:03 | 41.19068 | 16.94535 | 2701 ft | 168 kts | 247° |
| 2026-05-05 21:04 | 41.18659 | 16.93090 | 2518 ft | 168 kts | 248° |
| 2026-05-05 21:04 | 41.18248 | 16.91637 | 2336 ft | 169 kts | 248° |
| 2026-05-05 21:04 | 41.17837 | 16.90181 | 2105 ft | 167 kts | 248° |
| 2026-05-05 21:04 | 41.17438 | 16.88765 | 1882 ft | 161 kts | 248° |
| 2026-05-05 21:05 | 41.17048 | 16.87379 | 1692 ft | 160 kts | 248° |
| 2026-05-05 21:05 | 41.16655 | 16.85986 | 1479 ft | 162 kts | 248° |
| 2026-05-05 21:05 | 41.16260 | 16.84586 | 1274 ft | 162 kts | 248° |
| 2026-05-05 21:05 | 41.15866 | 16.83190 | 1044 ft | 159 kts | 247° |
| 2026-05-05 21:06 | 41.15474 | 16.81849 | 887 ft | 146 kts | 246° |
| 2026-05-05 21:06 | 41.15130 | 16.80652 | 690 ft | 133 kts | 248° |
| 2026-05-05 21:06 | 41.14809 | 16.79511 | 435 ft | 130 kts | 248° |
| 2026-05-05 21:06 | 41.14502 | 16.78401 | 262 ft | 127 kts | 248° |
| 2026-05-05 21:07 | 41.14203 | 16.77329 | 126 ft | 121 kts | 248° |
| 2026-05-05 21:07 | 41.13945 | 16.76387 | 127 ft | 90 kts | 250° |
| 2026-05-05 21:07 | 41.13786 | 16.75839 | 136 ft | 24 kts | 248° |
| 2026-05-05 21:07 | 41.13704 | 16.75711 | 139 ft | 17 kts | 217° |
| 2026-05-05 21:08 | 41.13597 | 16.75651 | 139 ft | 17 kts | 163° |
| 2026-05-05 21:08 | 41.13588 | 16.75783 | 137 ft | 17 kts | 67° |
| 2026-05-05 21:08 | 41.13630 | 16.75925 | 135 ft | 17 kts | 73° |
| 2026-05-05 21:08 | 41.13603 | 16.76054 | 135 ft | 15 kts | 143° |
| 2026-05-05 21:09 | 41.13556 | 16.76168 | 135 ft | 14 kts | 89° |
| 2026-05-05 21:09 | 41.13591 | 16.76282 | 135 ft | 10 kts | 69° |
| 2026-05-05 21:09 | 41.13608 | 16.76369 | 135 ft | 10 kts | 82° |
| 2026-05-05 21:09 | 41.13600 | 16.76434 | 135 ft | 6 kts | 147° |
| 2026-05-05 21:10 | 41.13594 | 16.76438 | 135 ft | 1 kts | 153° |
| 2026-05-05 21:10 | 41.13588 | 16.76441 | 135 ft | 1 kts | 155° |
| 2026-05-05 21:10 | 41.13568 | 16.76452 | 135 ft | 4 kts | 159° |
| 2026-05-05 21:10 | 41.13560 | 16.76456 | 135 ft | 0 kts | 160° |